createdAt,value
2023-05-13T00:03:53.390Z,9.60
2023-05-13T00:08:36.946Z,9.40
2023-05-13T00:13:22.371Z,9.40
2023-05-13T00:18:13.498Z,9.30
2023-05-13T00:23:03.381Z,9.40
2023-05-13T00:27:46.807Z,9.40
2023-05-13T00:32:35.167Z,9.40
2023-05-13T00:37:36.798Z,9.50
2023-05-13T00:42:27.596Z,9.40
2023-05-13T00:47:14.743Z,9.30
2023-05-13T00:52:02.880Z,9.30
2023-05-13T00:56:54.489Z,9.30
2023-05-13T01:01:56.362Z,9.30
2023-05-13T01:06:58.997Z,9.30
2023-05-13T01:11:50.443Z,9.20
2023-05-13T01:16:41.425Z,9.10
2023-05-13T01:21:27.832Z,9.00
2023-05-13T01:26:12.348Z,8.80
2023-05-13T01:30:59.528Z,8.70
2023-05-13T01:35:47.333Z,8.60
2023-05-13T01:40:39.535Z,8.60
2023-05-13T01:45:24.552Z,8.50
2023-05-13T01:50:13.174Z,8.40
2023-05-13T01:54:58.479Z,8.30
2023-05-13T01:59:51.202Z,8.30
2023-05-13T02:04:35.109Z,8.30
2023-05-13T02:09:23.779Z,8.20
2023-05-13T02:14:10.453Z,7.90
2023-05-13T02:19:14.966Z,7.70
2023-05-13T02:24:05.576Z,7.50
2023-05-13T02:28:52.462Z,7.30
2023-05-13T02:33:42.014Z,7.30
2023-05-13T02:38:27.570Z,7.20
2023-05-13T02:43:15.093Z,7.10
2023-05-13T02:48:18.638Z,6.90
2023-05-13T02:53:07.143Z,6.70
2023-05-13T02:57:56.751Z,6.80
2023-05-13T03:02:43.466Z,6.80
2023-05-13T03:07:33.525Z,6.90
2023-05-13T03:12:19.235Z,7.00
2023-05-13T03:17:37.846Z,7.10
2023-05-13T03:22:31.772Z,7.20
2023-05-13T03:27:15.468Z,7.10
2023-05-13T03:32:06.455Z,7.20
2023-05-13T03:36:50.539Z,7.20
2023-05-13T03:41:43.480Z,7.30
2023-05-13T03:46:27.925Z,7.50
2023-05-13T03:51:14.827Z,7.70
2023-05-13T03:56:03.964Z,7.80
2023-05-13T04:00:51.458Z,7.90
2023-05-13T04:05:41.730Z,7.90
2023-05-13T04:10:28.409Z,8.00
2023-05-13T04:15:15.017Z,8.20
2023-05-13T04:20:02.585Z,8.40
2023-05-13T04:24:52.108Z,8.70
2023-05-13T04:29:41.522Z,8.80
2023-05-13T04:34:28.093Z,8.90
2023-05-13T04:39:30.431Z,9.20
2023-05-13T04:44:19.935Z,9.40
2023-05-13T04:49:06.365Z,9.60
2023-05-13T04:53:56.588Z,10.10
2023-05-13T04:58:59.226Z,10.30
2023-05-13T05:03:51.740Z,10.60
2023-05-13T05:08:35.470Z,10.90
2023-05-13T05:13:24.906Z,11.10
2023-05-13T05:18:14.321Z,11.40
2023-05-13T05:23:01.268Z,11.70
2023-05-13T05:27:49.482Z,12.10
2023-05-13T05:32:36.663Z,12.70
2023-05-13T05:37:26.039Z,13.00
2023-05-13T05:42:11.601Z,13.40
2023-05-13T05:46:58.826Z,13.90
2023-05-13T05:51:48.534Z,14.30
2023-05-13T05:56:37.096Z,14.80
2023-05-13T06:01:23.866Z,15.00
2023-05-13T06:06:13.981Z,15.30
2023-05-13T06:10:59.336Z,15.50
2023-05-13T06:15:47.180Z,15.60
2023-05-13T06:20:37.078Z,15.80
2023-05-13T06:25:24.582Z,16.10
2023-05-13T06:30:10.825Z,16.40
2023-05-13T06:34:59.969Z,16.50
2023-05-13T06:39:47.055Z,16.50
2023-05-13T06:44:37.312Z,16.90
2023-05-13T06:49:24.753Z,17.10
2023-05-13T06:54:47.488Z,17.30
2023-05-13T06:59:31.082Z,17.40
2023-05-13T07:04:20.987Z,17.80
2023-05-13T07:09:08.420Z,18.40
2023-05-13T07:13:57.225Z,18.30
2023-05-13T07:18:43.519Z,18.40
2023-05-13T07:23:36.847Z,18.80
2023-05-13T07:28:23.930Z,18.90
2023-05-13T07:33:09.624Z,19.40
2023-05-13T07:37:54.787Z,19.70
2023-05-13T07:42:44.479Z,20.20
2023-05-13T07:47:31.872Z,20.20
2023-05-13T07:52:20.024Z,20.00
2023-05-13T07:57:10.442Z,20.30
2023-05-13T08:01:56.970Z,20.40
2023-05-13T08:06:43.945Z,20.30
2023-05-13T08:11:32.732Z,21.10
2023-05-13T08:16:51.723Z,21.10
2023-05-13T08:21:42.380Z,21.30
2023-05-13T08:26:29.807Z,21.60
2023-05-13T08:31:14.822Z,21.30
2023-05-13T08:36:02.216Z,21.50
2023-05-13T08:40:51.757Z,21.50
2023-05-13T08:45:44.793Z,21.10
2023-05-13T08:50:58.323Z,21.00
2023-05-13T08:55:48.376Z,21.10
2023-05-13T09:00:35.932Z,21.00
2023-05-13T09:05:25.821Z,21.40
2023-05-13T09:10:30.699Z,22.20
2023-05-13T09:15:22.021Z,22.80
2023-05-13T09:20:26.088Z,23.30
2023-05-13T09:25:40.762Z,22.70
2023-05-13T09:30:32.515Z,23.20
2023-05-13T09:35:19.291Z,23.40
2023-05-13T09:40:04.170Z,23.60
2023-05-13T09:45:09.692Z,22.60
2023-05-13T09:49:58.676Z,24.30
2023-05-13T09:54:58.464Z,24.40
2023-05-13T09:59:51.162Z,25.30
2023-05-13T10:04:55.853Z,24.40
2023-05-13T10:09:41.140Z,25.10
2023-05-13T10:14:28.266Z,26.10
2023-05-13T10:19:20.839Z,24.50
2023-05-13T10:24:07.573Z,24.10
2023-05-13T10:28:56.574Z,24.20
2023-05-13T10:33:41.875Z,24.10
2023-05-13T10:38:43.631Z,23.80
2023-05-13T10:43:33.303Z,23.30
2023-05-13T10:48:20.792Z,22.90
2023-05-13T10:53:22.218Z,23.40
2023-05-13T10:58:53.000Z,24.00
2023-05-13T11:04:02.317Z,24.20
2023-05-13T11:08:57.088Z,24.60
2023-05-13T11:13:43.489Z,24.40
2023-05-13T11:18:32.031Z,23.70
2023-05-13T11:28:54.383Z,22.40
2023-05-13T11:34:11.991Z,21.50
2023-05-13T11:39:11.912Z,21.50
2023-05-13T11:44:03.393Z,21.80
2023-05-13T11:48:53.220Z,21.80
2023-05-13T11:53:39.984Z,22.10
2023-05-13T11:58:27.403Z,21.90
2023-05-13T12:03:16.530Z,21.40
2023-05-13T12:08:20.231Z,21.00
2023-05-13T12:13:06.749Z,21.00
2023-05-13T12:17:59.494Z,21.10
2023-05-13T12:22:58.390Z,21.00
2023-05-13T12:27:53.158Z,20.50
2023-05-13T12:32:51.380Z,20.20
2023-05-13T12:37:40.128Z,20.80
2023-05-13T12:42:27.137Z,20.60
2023-05-13T12:47:20.952Z,20.40
2023-05-13T12:52:05.713Z,20.60
2023-05-13T12:56:51.026Z,20.70
2023-05-13T13:01:40.959Z,20.70
2023-05-13T13:06:28.287Z,20.40
2023-05-13T13:11:30.063Z,21.00
2023-05-13T13:16:26.352Z,20.60
2023-05-13T13:21:23.806Z,21.30
2023-05-13T13:26:16.613Z,21.60
2023-05-13T13:31:01.481Z,20.20
2023-05-13T13:36:20.916Z,20.90
2023-05-13T13:41:07.772Z,21.10
2023-05-13T13:45:57.431Z,21.10
2023-05-13T13:50:47.513Z,21.10
2023-05-13T13:55:33.229Z,21.30
2023-05-13T14:00:20.667Z,20.90
2023-05-13T14:05:09.980Z,20.60
2023-05-13T14:09:59.551Z,19.80
2023-05-13T14:14:58.815Z,19.70
2023-05-13T14:20:05.054Z,19.60
2023-05-13T14:24:53.229Z,19.30
2023-05-13T14:29:39.328Z,18.80
2023-05-13T14:34:40.660Z,18.50
2023-05-13T14:39:30.428Z,18.30
2023-05-13T14:44:19.977Z,18.30
2023-05-13T14:49:07.108Z,18.30
2023-05-13T14:53:55.181Z,18.10
2023-05-13T14:58:44.600Z,18.00
2023-05-13T15:03:31.392Z,18.00
2023-05-13T15:08:19.588Z,17.80
2023-05-13T15:13:55.261Z,17.70
2023-05-13T15:19:05.124Z,17.80
2023-05-13T15:24:04.749Z,17.70
2023-05-13T15:28:52.041Z,17.50
2023-05-13T15:33:39.097Z,17.40
2023-05-13T15:38:31.772Z,17.40
2023-05-13T15:43:16.057Z,17.30
2023-05-13T15:48:19.710Z,17.50
2023-05-13T15:53:09.071Z,17.20
2023-05-13T15:58:28.947Z,16.90
2023-05-13T16:03:19.622Z,16.80
2023-05-13T16:08:24.091Z,16.70
2023-05-13T16:13:26.356Z,16.60
2023-05-13T16:18:16.334Z,16.70
2023-05-13T16:23:00.319Z,16.50
2023-05-13T16:27:50.055Z,16.60
2023-05-13T16:32:54.702Z,16.50
2023-05-13T16:37:39.778Z,16.60
2023-05-13T16:42:30.601Z,16.40
2023-05-13T16:47:16.985Z,16.10
2023-05-13T16:52:04.871Z,15.80
2023-05-13T16:56:52.148Z,15.70
2023-05-13T17:01:39.087Z,15.50
2023-05-13T17:06:27.191Z,15.20
2023-05-13T17:11:52.230Z,14.90
2023-05-13T17:16:36.423Z,14.70
2023-05-13T17:21:22.948Z,14.50
2023-05-13T17:26:12.366Z,14.30
2023-05-13T17:31:00.299Z,14.10
2023-05-13T17:35:46.781Z,13.90
2023-05-13T17:40:39.339Z,13.90
2023-05-13T17:45:23.168Z,13.80
2023-05-13T17:50:14.442Z,13.70
2023-05-13T17:55:00.229Z,13.60
2023-05-13T17:59:47.801Z,13.40
2023-05-13T18:04:36.867Z,13.30
2023-05-13T18:09:24.221Z,13.20
2023-05-13T18:14:13.620Z,13.40
2023-05-13T18:18:59.895Z,13.50
2023-05-13T18:23:49.690Z,13.40
2023-05-13T18:28:34.838Z,13.30
2023-05-13T18:33:24.321Z,13.30
2023-05-13T18:38:10.838Z,13.10
2023-05-13T18:42:58.494Z,13.00
2023-05-13T18:47:51.060Z,12.90
2023-05-13T18:52:37.281Z,12.80
2023-05-13T18:57:23.787Z,12.70
2023-05-13T19:02:14.026Z,12.50
2023-05-13T19:06:59.435Z,12.40
2023-05-13T19:11:47.057Z,12.30
2023-05-13T19:16:37.065Z,12.20
2023-05-13T19:21:23.542Z,12.00
2023-05-13T19:26:10.561Z,11.70
2023-05-13T19:30:59.423Z,11.70
2023-05-13T19:35:47.519Z,11.50
2023-05-13T19:40:36.826Z,11.40
2023-05-13T19:45:24.247Z,11.30
2023-05-13T19:50:11.158Z,11.10
2023-05-13T19:55:00.000Z,11.00
2023-05-13T19:59:47.644Z,11.00
2023-05-13T20:04:33.855Z,11.10
2023-05-13T20:09:23.450Z,11.10
2023-05-13T20:14:08.753Z,11.00
2023-05-13T20:18:58.211Z,10.90
2023-05-13T20:23:47.893Z,10.90
2023-05-13T20:28:33.556Z,10.70
2023-05-13T20:33:23.843Z,10.50
2023-05-13T20:38:13.137Z,10.40
2023-05-13T20:43:01.646Z,10.30
2023-05-13T20:47:47.117Z,10.30
2023-05-13T20:52:33.678Z,10.40
2023-05-13T20:57:21.856Z,10.50
2023-05-13T21:02:14.597Z,10.60
2023-05-13T21:07:00.315Z,10.70
2023-05-13T21:11:49.553Z,10.70
2023-05-13T21:16:36.037Z,10.70
2023-05-13T21:21:27.229Z,10.70
2023-05-13T21:26:18.466Z,10.70
2023-05-13T21:31:15.148Z,10.60
2023-05-13T21:36:03.300Z,10.60
2023-05-13T21:41:10.499Z,10.70
2023-05-13T21:45:57.028Z,10.70
2023-05-13T21:50:46.558Z,10.70
2023-05-13T21:55:34.781Z,10.70
2023-05-13T22:00:21.889Z,10.60
2023-05-13T22:05:07.848Z,10.50
2023-05-13T22:09:54.797Z,10.40
2023-05-13T22:14:41.336Z,10.40
2023-05-13T22:19:33.553Z,10.40
2023-05-13T22:24:17.117Z,10.40
2023-05-13T22:29:04.703Z,10.30
2023-05-13T22:33:58.631Z,10.20
2023-05-13T22:38:44.855Z,10.20
2023-05-13T22:43:46.218Z,10.00
2023-05-13T22:48:34.394Z,10.00
2023-05-13T22:53:24.241Z,10.00
2023-05-13T22:58:12.496Z,10.00
2023-05-13T23:02:58.005Z,9.90
2023-05-13T23:07:45.076Z,9.90
2023-05-13T23:12:34.508Z,9.80
2023-05-13T23:17:26.859Z,9.70
2023-05-13T23:22:12.298Z,9.70
2023-05-13T23:26:57.690Z,9.70
2023-05-13T23:31:47.923Z,9.80
2023-05-13T23:36:37.185Z,9.90
2023-05-13T23:41:23.418Z,10.10
2023-05-13T23:46:12.632Z,10.30
2023-05-13T23:51:02.140Z,10.40
2023-05-13T23:55:47.201Z,10.50
